Time;durP1;ratioP1;P1;durP2;ratioP2;P2;SDS_P1;SDS_P2;PMS_P1;PMS_P2;Temp;Humidity;BMP_temperature;BMP_pressure;BME280_temperature;BME280_humidity;BME280_pressure;Samples;Min_cycle;Max_cycle;Signal;HPM_P1;HPM_P2
2022/05/06 00:02:08;;;;;;;96.88;16.33;;;;;;;;;;5039277;28;20099;-69
2022/05/06 00:04:34;;;;;;;76.65;15.57;;;;;;;;;;5035032;28;20037;-69
2022/05/06 00:07:12;;;;;;;91.20;16.13;;;;;;;;;;5034322;28;20053;-68
2022/05/06 00:09:44;;;;;;;86.43;16.40;;;;;;;;;;5040745;28;20037;-68
2022/05/06 00:12:22;;;;;;;101.65;17.30;;;;;;;;;;5035573;28;20127;-69
2022/05/06 00:14:48;;;;;;;85.93;17.27;;;;;;;;;;5035023;28;20167;-68
2022/05/06 00:17:13;;;;;;;107.80;18.10;;;;;;;;;;5035962;28;20427;-68
2022/05/06 00:19:52;;;;;;;105.30;17.83;;;;;;;;;;5036352;28;20538;-69
2022/05/06 00:22:18;;;;;;;93.18;16.08;;;;;;;;;;5035547;28;20052;-69
2022/05/06 00:24:43;;;;;;;96.15;18.00;;;;;;;;;;5038187;28;20389;-68
2022/05/06 00:27:22;;;;;;;105.70;17.35;;;;;;;;;;5035324;28;20033;-68
2022/05/06 00:29:48;;;;;;;95.80;16.52;;;;;;;;;;5036831;28;20033;-68
2022/05/06 00:32:13;;;;;;;88.32;16.23;;;;;;;;;;5033327;28;20033;-68
2022/05/06 00:34:51;;;;;;;103.80;17.60;;;;;;;;;;5035281;28;20033;-68
2022/05/06 00:37:17;;;;;;;80.43;16.42;;;;;;;;;;5035385;28;20033;-68
2022/05/06 00:39:42;;;;;;;84.22;16.40;;;;;;;;;;5036455;28;20104;-68
2022/05/06 00:42:21;;;;;;;92.30;17.83;;;;;;;;;;5035221;28;20435;-68
2022/05/06 00:44:47;;;;;;;87.75;16.10;;;;;;;;;;5040274;28;20040;-68
2022/05/06 00:47:22;;;;;;;101.35;16.48;;;;;;;;;;5041116;28;20022;-68
2022/05/06 00:49:53;;;;;;;100.57;15.27;;;;;;;;;;5051467;28;20042;-68
2022/05/06 00:52:19;;;;;;;107.47;17.17;;;;;;;;;;5034992;28;20064;-68
2022/05/06 00:54:51;;;;;;;101.72;16.77;;;;;;;;;;5035079;28;20488;-69
2022/05/06 00:57:23;;;;;;;74.85;15.00;;;;;;;;;;5033090;28;20037;-68
2022/05/06 01:02:46;;;;;;;100.63;15.60;;;;;;;;;;5036509;28;20535;-68
2022/05/06 01:05:13;;;;;;;84.55;15.50;;;;;;;;;;5047687;28;20059;-68
2022/05/06 01:07:39;;;;;;;96.30;15.80;;;;;;;;;;5023826;28;20049;-68
2022/05/06 01:10:18;;;;;;;102.75;16.98;;;;;;;;;;5035156;28;20491;-68
2022/05/06 01:12:43;;;;;;;91.32;15.30;;;;;;;;;;5034878;28;20116;-68
2022/05/06 01:15:33;;;;;;;101.55;17.48;;;;;;;;;;5035262;28;20544;-68
2022/05/06 01:17:59;;;;;;;82.88;16.77;;;;;;;;;;5034294;28;20436;-69
2022/05/06 01:20:25;;;;;;;103.25;15.75;;;;;;;;;;5040560;28;20075;-68
2022/05/06 01:23:04;;;;;;;114.13;17.00;;;;;;;;;;5034129;28;20477;-69
2022/05/06 01:25:30;;;;;;;88.45;16.02;;;;;;;;;;5033807;28;20038;-68
2022/05/06 01:28:00;;;;;;;84.40;16.70;;;;;;;;;;5034281;28;20103;-68
2022/05/06 01:30:48;;;;;;;93.80;16.35;;;;;;;;;;5047422;28;20032;-68
2022/05/06 01:33:18;;;;;;;88.60;15.75;;;;;;;;;;5030080;28;20029;-68
2022/05/06 01:36:01;;;;;;;95.30;16.08;;;;;;;;;;5034666;28;20054;-68
2022/05/06 01:38:34;;;;;;;109.38;16.33;;;;;;;;;;5043889;28;20484;-68
2022/05/06 01:41:15;;;;;;;85.43;16.55;;;;;;;;;;5032273;28;20106;-68
2022/05/06 01:43:47;;;;;;;107.55;16.33;;;;;;;;;;5039835;28;20041;-68
2022/05/06 01:46:26;;;;;;;87.95;16.08;;;;;;;;;;5032914;28;20040;-69
2022/05/06 01:48:52;;;;;;;105.70;16.00;;;;;;;;;;5039873;28;20041;-68
2022/05/06 01:51:25;;;;;;;100.78;16.05;;;;;;;;;;5032671;28;20112;-68
2022/05/06 01:53:57;;;;;;;93.27;16.50;;;;;;;;;;5035908;28;20171;-68
2022/05/06 01:56:23;;;;;;;97.63;14.75;;;;;;;;;;5033779;28;20270;-68
2022/05/06 01:58:54;;;;;;;100.72;17.75;;;;;;;;;;5034547;28;20029;-68
2022/05/06 02:01:26;;;;;;;137.20;18.55;;;;;;;;;;5032417;28;20045;-68
2022/05/06 02:06:48;;;;;;;110.75;18.00;;;;;;;;;;5032248;28;20103;-68
2022/05/06 02:09:16;;;;;;;107.70;16.48;;;;;;;;;;5034832;28;20464;-68
2022/05/06 02:11:55;;;;;;;103.28;16.33;;;;;;;;;;5033628;28;20377;-68
2022/05/06 02:14:21;;;;;;;110.10;16.27;;;;;;;;;;5033896;28;20052;-68
2022/05/06 02:16:46;;;;;;;136.93;17.55;;;;;;;;;;5033291;28;20458;-68
2022/05/06 02:19:24;;;;;;;107.38;17.75;;;;;;;;;;5034364;28;20029;-68
2022/05/06 02:21:50;;;;;;;106.07;16.80;;;;;;;;;;5033581;28;20048;-69
2022/05/06 02:24:15;;;;;;;97.00;17.63;;;;;;;;;;5041961;28;20021;-68
2022/05/06 02:26:53;;;;;;;89.60;16.05;;;;;;;;;;5049024;28;20470;-68
2022/05/06 02:29:19;;;;;;;88.78;15.98;;;;;;;;;;5034783;28;20045;-69
2022/05/06 02:34:42;;;;;;;104.55;16.67;;;;;;;;;;5034109;28;20499;-68
2022/05/06 02:37:08;;;;;;;102.05;16.45;;;;;;;;;;5021689;28;20474;-68
2022/05/06 02:39:33;;;;;;;168.57;17.98;;;;;;;;;;5033444;28;20112;-68
2022/05/06 02:42:12;;;;;;;253.45;22.02;;;;;;;;;;5035233;28;20426;-68
2022/05/06 02:44:38;;;;;;;220.70;22.00;;;;;;;;;;5029226;28;20079;-68
2022/05/06 02:47:03;;;;;;;188.43;21.00;;;;;;;;;;5034904;28;20025;-68
2022/05/06 02:49:42;;;;;;;153.10;19.55;;;;;;;;;;5035961;28;20076;-68
2022/05/06 02:52:09;;;;;;;142.75;17.40;;;;;;;;;;5021404;28;20470;-68
2022/05/06 02:54:34;;;;;;;141.05;19.20;;;;;;;;;;5034994;28;20029;-68
2022/05/06 02:57:12;;;;;;;119.70;17.88;;;;;;;;;;5037425;28;20029;-68
2022/05/06 02:59:39;;;;;;;226.48;21.17;;;;;;;;;;5032729;28;20049;-68
2022/05/06 03:02:05;;;;;;;117.85;16.52;;;;;;;;;;5032562;28;20393;-68
2022/05/06 03:04:43;;;;;;;128.57;17.92;;;;;;;;;;5035370;28;20045;-68
2022/05/06 03:07:09;;;;;;;125.88;17.35;;;;;;;;;;5031308;28;20045;-68
2022/05/06 03:09:35;;;;;;;94.80;15.27;;;;;;;;;;5037840;28;20113;-68
2022/05/06 03:12:14;;;;;;;109.30;15.45;;;;;;;;;;5028629;28;20056;-68
2022/05/06 03:14:40;;;;;;;103.20;15.10;;;;;;;;;;5028946;28;20540;-68
2022/05/06 03:17:05;;;;;;;96.88;15.45;;;;;;;;;;5032691;28;20065;-68
2022/05/06 03:19:43;;;;;;;98.57;14.65;;;;;;;;;;5031098;28;20053;-68
2022/05/06 03:22:09;;;;;;;120.50;15.75;;;;;;;;;;5032340;28;20460;-68
2022/05/06 03:24:34;;;;;;;89.07;13.63;;;;;;;;;;5032458;28;20087;-68
2022/05/06 03:29:57;;;;;;;83.40;11.70;;;;;;;;;;5035068;28;20056;-68
2022/05/06 03:32:36;;;;;;;84.53;12.80;;;;;;;;;;5032790;28;20104;-68
2022/05/06 03:35:02;;;;;;;63.75;12.27;;;;;;;;;;5033654;28;20041;-68
2022/05/06 03:37:28;;;;;;;67.95;12.95;;;;;;;;;;5048194;28;20045;-68
2022/05/06 03:40:06;;;;;;;87.10;13.18;;;;;;;;;;5033407;28;20034;-68
2022/05/06 03:42:32;;;;;;;84.57;12.55;;;;;;;;;;5032619;28;20041;-68
2022/05/06 03:44:58;;;;;;;78.65;13.07;;;;;;;;;;5039087;28;20087;-68
2022/05/06 03:47:36;;;;;;;71.35;13.07;;;;;;;;;;5032524;28;20104;-68
2022/05/06 03:53:00;;;;;;;90.53;13.60;;;;;;;;;;5036449;28;20102;-68
2022/05/06 03:55:26;;;;;;;68.70;12.45;;;;;;;;;;5038423;28;20060;-68
2022/05/06 03:57:52;;;;;;;82.57;12.13;;;;;;;;;;5036685;28;20057;-68
2022/05/06 04:00:30;;;;;;;64.78;12.15;;;;;;;;;;5029335;28;20029;-68
2022/05/06 04:02:56;;;;;;;66.55;11.45;;;;;;;;;;5031039;28;20091;-68
2022/05/06 04:05:42;;;;;;;61.67;10.73;;;;;;;;;;5039183;28;20049;-68
2022/05/06 04:08:08;;;;;;;58.13;12.15;;;;;;;;;;5035678;28;20103;-68
2022/05/06 04:10:33;;;;;;;103.82;13.57;;;;;;;;;;5058221;28;20424;-68
2022/05/06 04:13:12;;;;;;;80.00;11.70;;;;;;;;;;5035591;28;20035;-68
2022/05/06 04:15:38;;;;;;;66.00;10.25;;;;;;;;;;5038206;28;20087;-68
2022/05/06 04:18:04;;;;;;;53.83;10.52;;;;;;;;;;5036766;28;20025;-68
2022/05/06 04:23:29;;;;;;;56.15;10.93;;;;;;;;;;5038095;28;20056;-68
2022/05/06 04:26:12;;;;;;;79.95;11.70;;;;;;;;;;5035733;28;20112;-68
2022/05/06 04:28:38;;;;;;;53.83;10.23;;;;;;;;;;5036535;28;20033;-69
2022/05/06 04:31:17;;;;;;;61.53;11.63;;;;;;;;;;5043169;28;20549;-68
2022/05/06 04:33:43;;;;;;;77.65;10.30;;;;;;;;;;5035554;28;20548;-68
2022/05/06 04:36:09;;;;;;;45.72;9.63;;;;;;;;;;5033238;28;20117;-68
2022/05/06 04:38:48;;;;;;;61.53;10.27;;;;;;;;;;5032167;28;20030;-68
2022/05/06 04:41:14;;;;;;;61.15;10.23;;;;;;;;;;5033605;28;20091;-68
2022/05/06 04:43:39;;;;;;;58.83;9.82;;;;;;;;;;5035802;28;20041;-68
2022/05/06 04:46:18;;;;;;;50.30;10.52;;;;;;;;;;5035126;28;20026;-68
2022/05/06 04:48:44;;;;;;;44.00;8.98;;;;;;;;;;5036290;28;20076;-68
2022/05/06 04:51:09;;;;;;;56.17;9.30;;;;;;;;;;5034690;28;20056;-68
2022/05/06 04:53:47;;;;;;;52.42;9.93;;;;;;;;;;5039618;28;20037;-68
2022/05/06 04:56:13;;;;;;;55.88;9.38;;;;;;;;;;5035040;28;20033;-68
2022/05/06 04:58:38;;;;;;;61.05;9.48;;;;;;;;;;5036100;28;20022;-68
2022/05/06 05:01:16;;;;;;;46.88;9.35;;;;;;;;;;5033767;28;20030;-68
2022/05/06 05:03:42;;;;;;;55.90;9.63;;;;;;;;;;5035862;28;20532;-68
2022/05/06 05:06:07;;;;;;;59.03;9.63;;;;;;;;;;5030154;28;20113;-68
2022/05/06 05:08:46;;;;;;;36.80;8.70;;;;;;;;;;5032240;28;20076;-69
2022/05/06 05:11:12;;;;;;;33.33;8.05;;;;;;;;;;5025847;28;20064;-68
2022/05/06 05:13:40;;;;;;;43.85;8.85;;;;;;;;;;5034672;28;20061;-69
2022/05/06 05:16:18;;;;;;;49.50;9.13;;;;;;;;;;5035531;28;20060;-68
2022/05/06 05:18:44;;;;;;;28.15;8.02;;;;;;;;;;5036406;28;20039;-68
2022/05/06 05:21:09;;;;;;;43.38;8.75;;;;;;;;;;5035496;28;20104;-68
2022/05/06 05:23:48;;;;;;;57.50;8.70;;;;;;;;;;5030253;28;20029;-69
2022/05/06 05:26:13;;;;;;;27.05;7.55;;;;;;;;;;5026910;28;20040;-68
2022/05/06 05:28:38;;;;;;;32.10;8.30;;;;;;;;;;5035737;28;20033;-68
2022/05/06 05:31:17;;;;;;;42.20;8.40;;;;;;;;;;5049520;28;20022;-68
2022/05/06 05:33:43;;;;;;;30.65;6.88;;;;;;;;;;5038225;28;20033;-68
2022/05/06 05:36:08;;;;;;;34.08;8.55;;;;;;;;;;5033729;28;20022;-68
2022/05/06 05:38:47;;;;;;;40.25;7.43;;;;;;;;;;5037538;28;20077;-69
2022/05/06 05:41:13;;;;;;;36.47;6.90;;;;;;;;;;5032695;28;20033;-68
2022/05/06 05:49:20;;;;;;;710.20;44.45;;;;;;;;;;5037989;28;20598;-69
2022/05/06 05:51:58;;;;;;;1999.90;125.10;;;;;;;;;;5037771;28;20029;-68
2022/05/06 05:54:24;;;;;;;382.80;30.60;;;;;;;;;;5033638;28;20034;-69
2022/05/06 05:56:49;;;;;;;577.25;39.72;;;;;;;;;;5037726;28;20060;-69
2022/05/06 05:59:29;;;;;;;377.23;25.85;;;;;;;;;;5044638;28;20037;-69
2022/05/06 06:01:55;;;;;;;215.70;20.38;;;;;;;;;;5030380;28;20092;-69
2022/05/06 06:04:21;;;;;;;74.55;10.02;;;;;;;;;;5033693;28;20025;-69
2022/05/06 06:06:59;;;;;;;31.65;6.75;;;;;;;;;;5032700;28;20112;-69
2022/05/06 06:09:27;;;;;;;17.38;6.65;;;;;;;;;;5024548;28;20046;-69
2022/05/06 06:11:52;;;;;;;456.35;33.92;;;;;;;;;;5033389;28;20029;-68
2022/05/06 06:14:30;;;;;;;14.88;6.22;;;;;;;;;;5033502;28;20035;-69
2022/05/06 06:16:56;;;;;;;95.75;10.82;;;;;;;;;;5033472;28;20034;-69
2022/05/06 06:19:22;;;;;;;12.80;5.88;;;;;;;;;;5030422;28;20116;-68
2022/05/06 06:22:00;;;;;;;35.72;7.35;;;;;;;;;;5020294;28;20470;-69
2022/05/06 06:24:27;;;;;;;9.23;5.82;;;;;;;;;;5037901;28;20037;-69
2022/05/06 06:26:52;;;;;;;9.93;5.60;;;;;;;;;;5038302;28;20072;-69
2022/05/06 06:29:35;;;;;;;11.60;5.45;;;;;;;;;;5034115;28;20064;-69
2022/05/06 06:32:01;;;;;;;9.38;5.70;;;;;;;;;;5035239;28;20045;-69
2022/05/06 06:34:39;;;;;;;9.13;5.45;;;;;;;;;;5036075;28;20037;-69
2022/05/06 06:37:05;;;;;;;9.55;5.35;;;;;;;;;;5038145;28;20040;-69
2022/05/06 06:39:30;;;;;;;7.65;5.28;;;;;;;;;;5020838;28;20029;-69
2022/05/06 06:42:08;;;;;;;7.32;5.50;;;;;;;;;;5032987;28;20171;-69
2022/05/06 06:44:34;;;;;;;7.20;5.40;;;;;;;;;;5033107;28;20041;-69
2022/05/06 06:46:59;;;;;;;7.80;4.85;;;;;;;;;;5029246;28;20033;-69
2022/05/06 06:49:37;;;;;;;10.90;6.70;;;;;;;;;;5033953;28;20388;-70
2022/05/06 06:52:04;;;;;;;11.52;5.78;;;;;;;;;;5040610;28;20044;-70
2022/05/06 06:54:29;;;;;;;12.18;6.00;;;;;;;;;;5031577;28;20052;-69
2022/05/06 06:57:07;;;;;;;9.05;5.78;;;;;;;;;;5032723;28;20029;-69
2022/05/06 06:59:33;;;;;;;7.53;3.78;;;;;;;;;;5034522;28;20034;-69
2022/05/06 07:01:58;;;;;;;7.05;3.22;;;;;;;;;;5029164;28;20037;-69
2022/05/06 07:04:36;;;;;;;5.07;2.40;;;;;;;;;;5032473;28;20033;-70
2022/05/06 07:12:43;;;;;;;5.57;2.70;;;;;;;;;;5030112;28;20071;-67
2022/05/06 07:15:23;;;;;;;4.38;2.95;;;;;;;;;;5031436;28;20053;-67
2022/05/06 07:17:48;;;;;;;7.30;2.30;;;;;;;;;;5036170;28;20073;-67
2022/05/06 07:20:14;;;;;;;4.15;2.15;;;;;;;;;;5040461;28;20072;-68
2022/05/06 07:22:52;;;;;;;8.00;2.67;;;;;;;;;;5032063;28;20030;-67
2022/05/06 07:25:18;;;;;;;7.28;2.50;;;;;;;;;;5028159;28;20554;-67
2022/05/06 07:27:43;;;;;;;4.68;2.10;;;;;;;;;;5036804;28;20116;-67
2022/05/06 07:30:21;;;;;;;4.05;2.10;;;;;;;;;;5032656;28;20034;-68
2022/05/06 07:32:47;;;;;;;3.40;2.20;;;;;;;;;;5035767;28;20123;-67
2022/05/06 07:36:16;;;;;;;6.30;2.40;;;;;;;;;;5037211;28;20163;-67
2022/05/06 07:39:34;;;;;;;4.30;2.30;;;;;;;;;;5032649;28;20095;-67
2022/05/06 07:43:05;;;;;;;4.65;2.38;;;;;;;;;;5036077;28;20026;-67
2022/05/06 07:46:24;;;;;;;5.60;2.38;;;;;;;;;;5036477;28;20099;-67
2022/05/06 07:49:55;;;;;;;4.60;1.98;;;;;;;;;;5036296;28;20549;-67
2022/05/06 07:53:14;;;;;;;5.55;2.60;;;;;;;;;;5028834;28;20041;-67
2022/05/06 07:56:44;;;;;;;4.07;2.10;;;;;;;;;;5034941;28;20025;-67
2022/05/06 08:00:03;;;;;;;4.50;2.30;;;;;;;;;;5031578;28;20033;-67
2022/05/06 08:07:04;;;;;;;5.53;2.28;;;;;;;;;;5034411;28;20092;-67
2022/05/06 08:09:51;;;;;;;4.90;2.35;;;;;;;;;;5035416;28;20424;-67
2022/05/06 08:12:36;;;;;;;3.67;2.10;;;;;;;;;;5035316;28;20033;-67
2022/05/06 08:16:09;;;;;;;5.10;1.80;;;;;;;;;;5029790;28;20029;-68
2022/05/06 08:19:27;;;;;;;3.72;2.40;;;;;;;;;;5030387;28;20049;-67
2022/05/06 08:22:53;;;;;;;6.88;2.03;;;;;;;;;;5038047;28;20041;-68
2022/05/06 08:25:19;;;;;;;4.03;2.15;;;;;;;;;;5038175;28;20037;-68
2022/05/06 08:27:51;;;;;;;5.47;2.33;;;;;;;;;;5028414;28;20558;-68
2022/05/06 08:30:24;;;;;;;3.60;2.10;;;;;;;;;;5034823;28;20033;-68
2022/05/06 08:32:50;;;;;;;3.72;1.88;;;;;;;;;;5020568;28;20037;-68
2022/05/06 08:35:23;;;;;;;5.47;2.40;;;;;;;;;;5033884;28;20385;-68
2022/05/06 08:37:54;;;;;;;3.53;2.20;;;;;;;;;;5034190;28;20044;-68
2022/05/06 08:40:34;;;;;;;4.35;1.80;;;;;;;;;;5028719;28;20041;-67
2022/05/06 08:43:06;;;;;;;5.50;1.80;;;;;;;;;;5030040;28;20041;-68
2022/05/06 08:51:16;;;;;;;3.30;1.92;;;;;;;;;;5035756;28;20076;-68
2022/05/06 08:53:57;;;;;;;5.43;2.00;;;;;;;;;;5059607;28;20029;-67
2022/05/06 08:56:23;;;;;;;3.35;1.90;;;;;;;;;;5030065;28;20389;-68
2022/05/06 08:58:56;;;;;;;5.45;2.22;;;;;;;;;;5033690;28;20112;-68
2022/05/06 09:01:28;;;;;;;3.38;2.05;;;;;;;;;;5033476;28;20037;-68
2022/05/06 09:03:55;;;;;;;5.68;2.00;;;;;;;;;;5033711;28;20040;-68
2022/05/06 09:06:35;;;;;;;4.25;2.13;;;;;;;;;;5049271;28;20393;-68
2022/05/06 09:09:01;;;;;;;3.75;1.70;;;;;;;;;;5025702;28;20081;-68
2022/05/06 09:17:21;;;;;;;5.95;1.95;;;;;;;;;;5033413;28;20530;-68
2022/05/06 09:20:00;;;;;;;4.53;1.80;;;;;;;;;;5033448;28;20377;-68
2022/05/06 09:22:27;;;;;;;3.00;1.80;;;;;;;;;;5045103;28;20167;-68
2022/05/06 09:24:53;;;;;;;3.83;2.30;;;;;;;;;;5033699;28;20033;-68
2022/05/06 09:27:31;;;;;;;3.50;1.75;;;;;;;;;;5033662;28;20040;-68
2022/05/06 09:29:57;;;;;;;5.25;1.70;;;;;;;;;;5033397;28;20385;-68
2022/05/06 09:32:23;;;;;;;4.32;1.63;;;;;;;;;;5033665;28;20025;-68
2022/05/06 09:35:20;;;;;;;4.78;1.85;;;;;;;;;;5033932;28;20037;-68
2022/05/06 09:37:47;;;;;;;5.22;1.67;;;;;;;;;;5029271;28;20389;-68
2022/05/06 09:40:20;;;;;;;3.17;1.52;;;;;;;;;;5032979;28;20037;-68
2022/05/06 09:43:01;;;;;;;3.60;1.85;;;;;;;;;;5020336;28;20063;-68
2022/05/06 09:45:39;;;;;;;4.93;2.08;;;;;;;;;;5032563;28;20045;-67
2022/05/06 09:48:12;;;;;;;4.22;1.95;;;;;;;;;;5032209;28;20033;-69
2022/05/06 09:50:46;;;;;;;4.50;1.88;;;;;;;;;;5032479;28;20073;-67
2022/05/06 09:53:19;;;;;;;5.03;2.25;;;;;;;;;;5033043;28;20072;-67
2022/05/06 09:55:52;;;;;;;3.95;2.17;;;;;;;;;;5031944;28;20489;-67
2022/05/06 09:58:17;;;;;;;5.18;2.67;;;;;;;;;;5032769;28;20520;-67
2022/05/06 10:00:50;;;;;;;5.13;2.28;;;;;;;;;;5033038;28;20120;-67
2022/05/06 10:03:22;;;;;;;;;;;;;;;;;;5065163;28;20500;-68
2022/05/06 10:05:48;;;;;;;5.55;2.95;;;;;;;;;;5033179;28;19931;-67
2022/05/06 10:08:24;;;;;;;5.10;2.65;;;;;;;;;;5031634;28;20057;-67
2022/05/06 10:11:00;;;;;;;5.55;3.13;;;;;;;;;;5032595;28;20056;-67
2022/05/06 10:13:35;;;;;;;5.32;2.80;;;;;;;;;;5031215;28;20033;-67
2022/05/06 10:16:08;;;;;;;5.63;3.13;;;;;;;;;;5032815;28;20064;-67
2022/05/06 10:18:35;;;;;;;4.53;2.57;;;;;;;;;;5032674;28;20594;-67
2022/05/06 10:21:13;;;;;;;5.43;2.72;;;;;;;;;;5032400;28;20757;-67
2022/05/06 10:23:50;;;;;;;4.47;2.45;;;;;;;;;;5032692;28;20041;-67
2022/05/06 10:26:40;;;;;;;5.63;2.75;;;;;;;;;;5033021;28;20042;-67
2022/05/06 10:32:27;;;;;;;4.60;2.60;;;;;;;;;;5031827;28;20532;-67
2022/05/06 10:35:00;;;;;;;7.68;3.88;;;;;;;;;;5032822;28;20041;-67
2022/05/06 10:37:43;;;;;;;6.25;3.25;;;;;;;;;;5030938;28;20046;-67
2022/05/06 10:40:25;;;;;;;5.80;3.10;;;;;;;;;;5032560;28;20041;-67
2022/05/06 10:42:57;;;;;;;4.50;3.10;;;;;;;;;;5018250;28;20037;-66
2022/05/06 10:45:32;;;;;;;5.72;3.50;;;;;;;;;;5032545;28;20052;-68
2022/05/06 10:48:04;;;;;;;6.72;3.50;;;;;;;;;;5025550;28;20481;-69
2022/05/06 10:50:38;;;;;;;6.90;3.88;;;;;;;;;;5025947;28;20178;-70
2022/05/06 10:53:04;;;;;;;6.07;3.83;;;;;;;;;;5031964;28;20036;-69
2022/05/06 10:55:36;;;;;;;7.72;4.32;;;;;;;;;;5032387;28;20363;-69
2022/05/06 10:58:09;;;;;;;6.10;3.72;;;;;;;;;;5032494;28;20038;-69
2022/05/06 11:00:38;;;;;;;7.03;4.13;;;;;;;;;;5036420;28;20045;-69
2022/05/06 11:03:10;;;;;;;6.28;3.75;;;;;;;;;;5051175;28;20029;-69
2022/05/06 11:05:43;;;;;;;5.88;4.00;;;;;;;;;;5036389;28;20083;-69
2022/05/06 11:08:09;;;;;;;6.07;4.03;;;;;;;;;;5025496;28;20053;-69
2022/05/06 11:10:41;;;;;;;7.57;3.90;;;;;;;;;;5034461;28;20261;-69
2022/05/06 11:13:14;;;;;;;7.90;3.60;;;;;;;;;;5034940;28;20708;-69
2022/05/06 11:15:39;;;;;;;6.47;3.42;;;;;;;;;;5034974;28;20033;-69
2022/05/06 11:18:11;;;;;;;5.85;3.22;;;;;;;;;;5034501;28;20041;-69
2022/05/06 11:20:44;;;;;;;5.57;3.33;;;;;;;;;;5032930;28;20045;-68
2022/05/06 11:23:11;;;;;;;7.63;3.22;;;;;;;;;;5028302;28;20061;-68
2022/05/06 11:26:00;;;;;;;7.80;3.90;;;;;;;;;;5034612;28;20516;-68
2022/05/06 11:28:25;;;;;;;7.07;3.75;;;;;;;;;;5030859;28;20040;-68
2022/05/06 11:30:52;;;;;;;7.40;3.75;;;;;;;;;;5034478;28;20389;-68
2022/05/06 11:33:32;;;;;;;8.30;4.30;;;;;;;;;;5034614;28;20029;-69
2022/05/06 11:36:03;;;;;;;6.97;4.10;;;;;;;;;;5034602;28;20045;-68
2022/05/06 11:38:46;;;;;;;9.18;4.88;;;;;;;;;;5033226;28;20037;-68
2022/05/06 11:41:13;;;;;;;7.38;4.10;;;;;;;;;;5033885;28;20060;-69
2022/05/06 11:43:52;;;;;;;9.23;4.78;;;;;;;;;;5034474;28;20052;-68
2022/05/06 11:49:29;;;;;;;6.85;4.70;;;;;;;;;;5031647;28;20056;-68
2022/05/06 11:51:57;;;;;;;10.00;5.22;;;;;;;;;;5031510;28;20043;-68
2022/05/06 11:54:35;;;;;;;7.25;4.68;;;;;;;;;;5032566;28;20469;-69
2022/05/06 11:57:01;;;;;;;6.55;4.10;;;;;;;;;;5033838;28;20447;-69
2022/05/06 11:59:26;;;;;;;7.68;3.72;;;;;;;;;;5033006;28;20042;-69
2022/05/06 12:02:11;;;;;;;5.88;3.80;;;;;;;;;;5049319;28;20037;-68
2022/05/06 12:04:37;;;;;;;9.02;4.10;;;;;;;;;;5033467;28;20037;-69
2022/05/06 12:07:09;;;;;;;7.05;3.67;;;;;;;;;;5033722;28;20515;-68
2022/05/06 12:09:50;;;;;;;7.85;3.45;;;;;;;;;;5025799;28;20116;-69
2022/05/06 12:12:23;;;;;;;7.95;3.58;;;;;;;;;;5024948;28;20041;-68
2022/05/06 12:14:48;;;;;;;5.93;3.80;;;;;;;;;;5065203;28;20421;-68
2022/05/06 12:17:20;;;;;;;7.25;3.53;;;;;;;;;;5028406;28;20035;-69
2022/05/06 12:19:53;;;;;;;5.07;3.30;;;;;;;;;;5033848;28;20112;-69
2022/05/06 12:22:29;;;;;;;6.05;3.05;;;;;;;;;;5033425;28;20095;-68
2022/05/06 12:25:13;;;;;;;6.43;2.72;;;;;;;;;;5033224;28;20034;-68
2022/05/06 12:27:44;;;;;;;4.70;3.13;;;;;;;;;;5033411;28;20116;-68
2022/05/06 12:30:17;;;;;;;4.53;2.83;;;;;;;;;;5033463;28;20099;-68
2022/05/06 12:32:42;;;;;;;5.78;3.00;;;;;;;;;;5030323;28;20033;-69
2022/05/06 12:35:17;;;;;;;4.72;3.13;;;;;;;;;;5034433;28;20519;-68
2022/05/06 12:38:00;;;;;;;5.15;2.95;;;;;;;;;;5035285;28;20095;-68
2022/05/06 12:40:38;;;;;;;6.77;3.90;;;;;;;;;;5035236;28;20036;-68
2022/05/06 12:43:11;;;;;;;5.15;3.20;;;;;;;;;;5065799;28;20094;-69
2022/05/06 12:45:37;;;;;;;4.50;2.88;;;;;;;;;;5035417;28;20041;-68
2022/05/06 12:51:02;;;;;;;7.13;2.83;;;;;;;;;;5034862;28;20425;-69
2022/05/06 12:53:35;;;;;;;9.35;3.50;;;;;;;;;;5035001;28;20045;-68
2022/05/06 12:56:17;;;;;;;4.55;2.72;;;;;;;;;;5034919;28;20401;-68
2022/05/06 12:58:48;;;;;;;4.10;3.17;;;;;;;;;;5027197;28;20044;-68
2022/05/06 13:01:22;;;;;;;6.18;3.40;;;;;;;;;;5034915;28;20033;-68
2022/05/06 13:03:47;;;;;;;6.35;3.63;;;;;;;;;;5035220;28;20029;-68
2022/05/06 13:06:19;;;;;;;5.10;3.72;;;;;;;;;;5032965;28;20529;-68
2022/05/06 13:08:52;;;;;;;6.97;3.90;;;;;;;;;;5033492;28;20187;-68
2022/05/06 13:11:17;;;;;;;10.88;3.25;;;;;;;;;;5034576;28;20034;-68
2022/05/06 13:13:49;;;;;;;6.78;3.92;;;;;;;;;;5034592;28;20036;-68
2022/05/06 13:16:22;;;;;;;5.60;3.72;;;;;;;;;;5030976;28;20486;-68
2022/05/06 13:18:47;;;;;;;9.43;4.07;;;;;;;;;;5034777;28;20037;-68
2022/05/06 13:21:19;;;;;;;7.25;3.70;;;;;;;;;;5033367;28;20036;-68
2022/05/06 13:23:52;;;;;;;5.32;3.95;;;;;;;;;;5034407;28;20473;-68
2022/05/06 13:26:18;;;;;;;6.03;3.80;;;;;;;;;;5034514;28;20063;-68
2022/05/06 13:28:49;;;;;;;4.88;3.13;;;;;;;;;;5034535;28;20033;-68
2022/05/06 13:31:22;;;;;;;8.45;3.22;;;;;;;;;;5034134;28;20436;-69
2022/05/06 13:33:48;;;;;;;6.40;3.05;;;;;;;;;;5034564;28;20068;-68
2022/05/06 13:36:20;;;;;;;5.88;3.20;;;;;;;;;;5033775;28;20025;-68
2022/05/06 13:38:53;;;;;;;4.78;3.13;;;;;;;;;;5034038;28;20508;-68
2022/05/06 13:41:18;;;;;;;7.60;3.08;;;;;;;;;;5030063;28;20053;-68
2022/05/06 13:43:50;;;;;;;6.30;3.65;;;;;;;;;;5032838;28;20453;-69
2022/05/06 13:46:22;;;;;;;5.28;3.42;;;;;;;;;;5031965;28;20034;-68
2022/05/06 13:48:48;;;;;;;6.32;3.70;;;;;;;;;;5033668;28;20033;-68
2022/05/06 13:51:20;;;;;;;6.43;3.63;;;;;;;;;;5033051;28;20029;-68
2022/05/06 13:53:52;;;;;;;6.80;4.35;;;;;;;;;;5033196;28;20029;-68
2022/05/06 13:59:15;;;;;;;6.35;4.60;;;;;;;;;;5032937;28;20148;-68
2022/05/06 14:01:40;;;;;;;7.47;4.78;;;;;;;;;;5032579;28;20041;-68
2022/05/06 14:04:06;;;;;;;7.25;4.85;;;;;;;;;;5033188;28;20025;-68
2022/05/06 14:06:44;;;;;;;6.93;4.93;;;;;;;;;;5033398;28;20029;-68
2022/05/06 14:09:10;;;;;;;9.13;5.00;;;;;;;;;;5031723;28;20489;-68
2022/05/06 14:11:35;;;;;;;6.90;4.43;;;;;;;;;;5032869;28;20083;-68
2022/05/06 14:14:13;;;;;;;6.28;3.75;;;;;;;;;;5032648;28;20029;-68
2022/05/06 14:16:39;;;;;;;7.05;4.78;;;;;;;;;;5032488;28;20037;-68
2022/05/06 14:19:04;;;;;;;7.13;3.92;;;;;;;;;;5032832;28;20033;-68
2022/05/06 14:21:42;;;;;;;6.55;3.80;;;;;;;;;;5032260;28;20091;-68
2022/05/06 14:24:09;;;;;;;5.90;4.13;;;;;;;;;;5033014;28;20141;-68
2022/05/06 14:26:35;;;;;;;8.38;5.18;;;;;;;;;;5033030;28;20117;-68
2022/05/06 14:29:14;;;;;;;7.57;3.85;;;;;;;;;;5065119;28;20113;-68
2022/05/06 14:31:39;;;;;;;7.68;3.67;;;;;;;;;;5032400;28;20045;-67
2022/05/06 14:34:05;;;;;;;5.85;3.60;;;;;;;;;;5032909;28;20044;-68
2022/05/06 14:36:43;;;;;;;6.13;4.88;;;;;;;;;;5033324;28;20521;-68
2022/05/06 14:39:09;;;;;;;6.55;3.90;;;;;;;;;;5033266;28;20036;-68
2022/05/06 14:41:34;;;;;;;5.82;3.75;;;;;;;;;;5033263;28;20108;-68
2022/05/06 14:44:13;;;;;;;8.38;4.22;;;;;;;;;;5032308;28;20204;-68
2022/05/06 14:46:38;;;;;;;5.88;3.75;;;;;;;;;;5031080;28;20052;-68
2022/05/06 14:49:06;;;;;;;6.60;4.32;;;;;;;;;;5030601;28;20033;-68
2022/05/06 14:51:44;;;;;;;6.70;4.30;;;;;;;;;;5033155;28;20033;-68
2022/05/06 14:54:10;;;;;;;7.18;4.03;;;;;;;;;;5022710;28;20107;-68
2022/05/06 14:56:35;;;;;;;6.78;4.60;;;;;;;;;;5033160;28;20429;-68
2022/05/06 14:59:13;;;;;;;8.07;4.57;;;;;;;;;;5033181;28;20033;-68
2022/05/06 15:01:40;;;;;;;6.72;4.32;;;;;;;;;;5032849;28;20535;-68
2022/05/06 15:04:05;;;;;;;8.13;4.47;;;;;;;;;;5029707;28;20151;-68
2022/05/06 15:06:43;;;;;;;5.22;4.03;;;;;;;;;;5031996;28;20120;-68
2022/05/06 15:09:09;;;;;;;6.97;3.88;;;;;;;;;;5028666;28;20061;-68
2022/05/06 15:11:34;;;;;;;5.53;3.42;;;;;;;;;;5032424;28;20034;-68
2022/05/06 15:14:12;;;;;;;7.00;3.40;;;;;;;;;;5032429;28;20017;-68
2022/05/06 15:16:38;;;;;;;7.22;3.38;;;;;;;;;;5031921;28;20044;-68
2022/05/06 15:22:01;;;;;;;7.20;3.65;;;;;;;;;;5031842;28;20499;-68
2022/05/06 15:24:30;;;;;;;6.80;3.53;;;;;;;;;;5032001;28;20163;-68
2022/05/06 15:27:08;;;;;;;6.45;3.45;;;;;;;;;;5032221;28;20022;-68
2022/05/06 15:29:34;;;;;;;6.95;3.75;;;;;;;;;;5031598;28;20440;-68
2022/05/06 15:32:03;;;;;;;4.97;3.15;;;;;;;;;;5031921;28;20038;-68
2022/05/06 15:34:42;;;;;;;4.50;2.60;;;;;;;;;;5031289;28;20366;-68
2022/05/06 15:37:08;;;;;;;6.18;2.60;;;;;;;;;;5026074;28;20044;-68
2022/05/06 15:39:35;;;;;;;4.68;2.75;;;;;;;;;;5032197;28;20025;-68
2022/05/06 15:42:13;;;;;;;5.00;2.65;;;;;;;;;;5031986;28;20381;-68
2022/05/06 15:44:39;;;;;;;6.22;2.90;;;;;;;;;;5032441;28;20091;-68
2022/05/06 15:47:06;;;;;;;4.93;3.22;;;;;;;;;;5035499;28;20022;-68
2022/05/06 15:49:44;;;;;;;8.57;3.28;;;;;;;;;;5034912;28;20535;-69
2022/05/06 15:52:10;;;;;;;6.32;2.78;;;;;;;;;;5027954;28;20033;-68
2022/05/06 15:54:35;;;;;;;8.25;3.85;;;;;;;;;;5035290;28;20497;-68
2022/05/06 15:57:13;;;;;;;7.07;3.70;;;;;;;;;;5051066;28;20095;-68
2022/05/06 15:59:39;;;;;;;6.15;4.10;;;;;;;;;;5035620;28;20037;-68
2022/05/06 16:02:04;;;;;;;7.90;4.07;;;;;;;;;;5035265;28;20035;-68
2022/05/06 16:04:43;;;;;;;9.43;4.18;;;;;;;;;;5035194;28;20025;-68